Time,TemperatureF,DewpointF,PressureIn,WindDirection,WindDirectionDegrees,WindSpeedMPH,WindSpeedGustMPH,Humidity,HourlyPrecipIn,Conditions,Clouds,dailyrainin,SoftwareType,DateUTC
2013-04-02 00:00:00,50.0,13.6,29.97,West,270,9.0,16.0,23,0.00,,,0.00,Weather View 32 v70,2013-04-02 06:00:00,
2013-04-02 00:05:00,49.0,12.8,29.97,West,270,5.0,16.0,23,0.00,,,0.00,Weather View 32 v70,2013-04-02 06:05:00,
2013-04-02 00:10:00,50.0,9.3,29.98,WNW,292,6.0,16.0,19,0.00,,,0.00,Weather View 32 v70,2013-04-02 06:10:00,
2013-04-02 00:15:00,49.0,9.6,29.98,WNW,292,6.0,16.0,20,0.00,,,0.00,Weather View 32 v70,2013-04-02 06:15:00,
2013-04-02 00:20:00,50.0,10.4,29.98,NW,315,7.0,16.0,20,0.00,,,0.00,Weather View 32 v70,2013-04-02 06:20:00,
2013-04-02 00:25:00,49.0,9.6,29.98,NW,315,7.0,16.0,20,0.00,,,0.00,Weather View 32 v70,2013-04-02 06:25:00,
2013-04-02 00:30:00,50.0,8.1,29.98,NW,315,10.0,16.0,18,0.00,,,0.00,Weather View 32 v70,2013-04-02 06:30:00,
2013-04-02 00:35:00,49.0,7.3,29.98,WNW,292,8.0,16.0,18,0.00,,,0.00,Weather View 32 v70,2013-04-02 06:35:00,
2013-04-02 00:40:00,49.0,7.3,29.99,NW,315,7.0,16.0,18,0.00,,,0.00,Weather View 32 v70,2013-04-02 06:40:00,
2013-04-02 00:45:00,49.0,9.6,29.99,WNW,292,6.0,16.0,20,0.00,,,0.00,Weather View 32 v70,2013-04-02 06:45:00,
2013-04-02 00:50:00,49.0,9.6,29.99,West,270,3.0,16.0,20,0.00,,,0.00,Weather View 32 v70,2013-04-02 06:50:00,
2013-04-02 00:55:00,48.0,9.9,29.99,West,270,4.0,16.0,21,0.00,,,0.00,Weather View 32 v70,2013-04-02 06:55:00,
2013-04-02 01:00:00,48.0,9.9,29.99,West,270,3.0,15.0,21,0.00,,,0.00,Weather View 32 v70,2013-04-02 07:00:00,
2013-04-02 01:05:00,48.0,10.9,29.99,West,270,7.0,15.0,22,0.00,,,0.00,Weather View 32 v70,2013-04-02 07:05:00,
2013-04-02 01:10:00,48.0,11.9,29.99,WNW,292,4.0,15.0,23,0.00,,,0.00,Weather View 32 v70,2013-04-02 07:10:00,
2013-04-02 01:15:00,47.0,12.0,29.99,West,270,6.0,15.0,24,0.00,,,0.00,Weather View 32 v70,2013-04-02 07:15:00,
2013-04-02 01:20:00,47.0,12.9,29.99,West,270,8.0,14.0,25,0.00,,,0.00,Weather View 32 v70,2013-04-02 07:20:00,
2013-04-02 01:25:00,47.0,14.7,29.99,West,270,6.0,13.0,27,0.00,,,0.00,Weather View 32 v70,2013-04-02 07:25:00,
2013-04-02 01:30:00,47.0,14.7,29.99,WNW,292,7.0,13.0,27,0.00,,,0.00,Weather View 32 v70,2013-04-02 07:30:00,
2013-04-02 01:35:00,46.0,13.8,29.99,WNW,292,6.0,13.0,27,0.00,,,0.00,Weather View 32 v70,2013-04-02 07:35:00,
2013-04-02 01:40:00,47.0,14.7,29.99,West,270,11.0,12.0,27,0.00,,,0.00,Weather View 32 v70,2013-04-02 07:40:00,
2013-04-02 01:45:00,46.0,13.0,29.99,NW,315,5.0,12.0,26,0.00,,,0.00,Weather View 32 v70,2013-04-02 07:45:00,
2013-04-02 01:50:00,46.0,13.0,29.99,WNW,292,6.0,12.0,26,0.00,,,0.00,Weather View 32 v70,2013-04-02 07:50:00,
2013-04-02 01:55:00,46.0,13.8,29.99,WNW,292,4.0,12.0,27,0.00,,,0.00,Weather View 32 v70,2013-04-02 07:55:00,
2013-04-02 02:00:00,46.0,13.8,30.00,West,270,3.0,12.0,27,0.00,,,0.00,Weather View 32 v70,2013-04-02 08:00:00,
2013-04-02 02:05:00,46.0,13.8,30.00,West,270,3.0,12.0,27,0.00,,,0.00,Weather View 32 v70,2013-04-02 08:05:00,
2013-04-02 02:10:00,46.0,14.7,30.00,West,270,5.0,12.0,28,0.00,,,0.00,Weather View 32 v70,2013-04-02 08:10:00,
2013-04-02 02:15:00,45.0,13.8,30.00,West,270,5.0,12.0,28,0.00,,,0.00,Weather View 32 v70,2013-04-02 08:15:00,
2013-04-02 02:20:00,45.0,14.6,29.99,West,270,3.0,12.0,29,0.00,,,0.00,Weather View 32 v70,2013-04-02 08:20:00,
2013-04-02 02:25:00,44.0,14.5,29.99,West,270,4.0,12.0,30,0.00,,,0.00,Weather View 32 v70,2013-04-02 08:25:00,
2013-04-02 02:30:00,44.0,14.5,30.00,West,270,6.0,12.0,30,0.00,,,0.00,Weather View 32 v70,2013-04-02 08:30:00,
2013-04-02 02:35:00,44.0,15.3,30.00,West,270,5.0,12.0,31,0.00,,,0.00,Weather View 32 v70,2013-04-02 08:35:00,
2013-04-02 02:40:00,44.0,15.3,30.00,West,270,4.0,11.0,31,0.00,,,0.00,Weather View 32 v70,2013-04-02 08:40:00,
2013-04-02 02:45:00,44.0,16.0,30.00,SW,225,5.0,10.0,32,0.00,,,0.00,Weather View 32 v70,2013-04-02 08:45:00,
2013-04-02 02:50:00,44.0,16.7,30.00,West,270,4.0,10.0,33,0.00,,,0.00,Weather View 32 v70,2013-04-02 08:50:00,
2013-04-02 02:55:00,43.0,16.5,30.00,West,270,4.0,10.0,34,0.00,,,0.00,Weather View 32 v70,2013-04-02 08:55:00,
2013-04-02 03:00:00,43.0,17.2,30.00,WNW,292,7.0,9.0,35,0.00,,,0.00,Weather View 32 v70,2013-04-02 09:00:00,
2013-04-02 03:05:00,43.0,17.2,30.00,West,270,5.0,9.0,35,0.00,,,0.00,Weather View 32 v70,2013-04-02 09:05:00,
2013-04-02 03:10:00,43.0,16.5,30.00,West,270,0.0,9.0,34,0.00,,,0.00,Weather View 32 v70,2013-04-02 09:10:00,
2013-04-02 03:15:00,42.0,14.9,30.00,West,270,3.0,9.0,33,0.00,,,0.00,Weather View 32 v70,2013-04-02 09:15:00,
2013-04-02 03:20:00,42.0,14.2,30.00,West,270,0.0,9.0,32,0.00,,,0.00,Weather View 32 v70,2013-04-02 09:20:00,
2013-04-02 03:25:00,42.0,14.2,30.00,West,270,0.0,9.0,32,0.00,,,0.00,Weather View 32 v70,2013-04-02 09:25:00,
2013-04-02 03:30:00,42.0,14.2,30.01,West,270,3.0,9.0,32,0.00,,,0.00,Weather View 32 v70,2013-04-02 09:30:00,
2013-04-02 03:35:00,42.0,14.9,30.01,West,270,3.0,9.0,33,0.00,,,0.00,Weather View 32 v70,2013-04-02 09:35:00,
2013-04-02 03:40:00,42.0,15.6,30.00,West,270,2.0,9.0,34,0.00,,,0.00,Weather View 32 v70,2013-04-02 09:40:00,
2013-04-02 03:45:00,41.0,14.1,30.00,West,270,3.0,9.0,33,0.00,,,0.00,Weather View 32 v70,2013-04-02 09:45:00,
2013-04-02 03:50:00,41.0,14.1,30.00,West,270,2.0,9.0,33,0.00,,,0.00,Weather View 32 v70,2013-04-02 09:50:00,
2013-04-02 03:55:00,41.0,14.7,30.00,West,270,1.0,8.0,34,0.00,,,0.00,Weather View 32 v70,2013-04-02 09:55:00,
2013-04-02 04:00:00,41.0,14.1,30.00,West,270,3.0,8.0,33,0.00,,,0.00,Weather View 32 v70,2013-04-02 10:00:00,
2013-04-02 04:05:00,41.0,14.7,30.00,West,270,2.0,8.0,34,0.00,,,0.00,Weather View 32 v70,2013-04-02 10:05:00,
2013-04-02 04:10:00,41.0,14.7,30.00,West,270,0.0,6.0,34,0.00,,,0.00,Weather View 32 v70,2013-04-02 10:10:00,
2013-04-02 04:15:00,40.0,15.2,30.00,West,270,1.0,4.0,36,0.00,,,0.00,Weather View 32 v70,2013-04-02 10:15:00,
2013-04-02 04:20:00,40.0,15.8,30.00,West,270,3.0,4.0,37,0.00,,,0.00,Weather View 32 v70,2013-04-02 10:20:00,
2013-04-02 04:25:00,39.0,16.1,30.00,West,270,3.0,5.0,39,0.00,,,0.00,Weather View 32 v70,2013-04-02 10:25:00,
2013-04-02 04:30:00,39.0,16.7,30.01,West,270,3.0,5.0,40,0.00,,,0.00,Weather View 32 v70,2013-04-02 10:30:00,
2013-04-02 04:35:00,39.0,16.1,30.01,West,270,2.0,5.0,39,0.00,,,0.00,Weather View 32 v70,2013-04-02 10:35:00,
2013-04-02 04:40:00,39.0,15.5,30.01,West,270,3.0,5.0,38,0.00,,,0.00,Weather View 32 v70,2013-04-02 10:40:00,
2013-04-02 04:45:00,38.0,15.2,30.01,West,270,3.0,5.0,39,0.00,,,0.00,Weather View 32 v70,2013-04-02 10:45:00,
2013-04-02 04:50:00,39.0,15.5,30.01,West,270,3.0,5.0,38,0.00,,,0.00,Weather View 32 v70,2013-04-02 10:50:00,
2013-04-02 04:55:00,38.0,14.6,30.01,West,270,2.0,5.0,38,0.00,,,0.00,Weather View 32 v70,2013-04-02 10:55:00,
2013-04-02 05:00:00,39.0,15.5,30.01,West,270,2.0,5.0,38,0.00,,,0.00,Weather View 32 v70,2013-04-02 11:00:00,
2013-04-02 05:05:00,38.0,15.2,30.01,West,270,0.0,5.0,39,0.00,,,0.00,Weather View 32 v70,2013-04-02 11:05:00,
2013-04-02 05:10:00,38.0,15.2,30.01,West,270,2.0,5.0,39,0.00,,,0.00,Weather View 32 v70,2013-04-02 11:10:00,
2013-04-02 05:15:00,38.0,15.8,30.01,West,270,0.0,5.0,40,0.00,,,0.00,Weather View 32 v70,2013-04-02 11:15:00,
2013-04-02 05:20:00,38.0,16.4,30.01,West,270,0.0,5.0,41,0.00,,,0.00,Weather View 32 v70,2013-04-02 11:20:00,
2013-04-02 05:25:00,38.0,16.4,30.01,East,90,5.0,5.0,41,0.00,,,0.00,Weather View 32 v70,2013-04-02 11:25:00,
2013-04-02 05:30:00,38.0,16.4,30.02,East,90,5.0,6.0,41,0.00,,,0.00,Weather View 32 v70,2013-04-02 11:30:00,
2013-04-02 05:35:00,38.0,15.8,30.02,East,90,4.0,6.0,40,0.00,,,0.00,Weather View 32 v70,2013-04-02 11:35:00,
2013-04-02 05:40:00,38.0,15.2,30.02,East,90,4.0,6.0,39,0.00,,,0.00,Weather View 32 v70,2013-04-02 11:40:00,
2013-04-02 05:45:00,38.0,16.4,30.02,East,90,3.0,6.0,41,0.00,,,0.00,Weather View 32 v70,2013-04-02 11:45:00,
2013-04-02 05:50:00,38.0,16.4,30.02,East,90,0.0,6.0,41,0.00,,,0.00,Weather View 32 v70,2013-04-02 11:50:00,
2013-04-02 05:55:00,38.0,16.4,30.02,East,90,3.0,6.0,41,0.00,,,0.00,Weather View 32 v70,2013-04-02 11:55:00,
2013-04-02 06:00:00,38.0,16.9,30.02,East,90,3.0,6.0,42,0.00,,,0.00,Weather View 32 v70,2013-04-02 12:00:00,
2013-04-02 06:05:00,38.0,16.9,30.02,East,90,3.0,6.0,42,0.00,,,0.00,Weather View 32 v70,2013-04-02 12:05:00,
2013-04-02 06:10:00,38.0,16.9,30.02,East,90,3.0,6.0,42,0.00,,,0.00,Weather View 32 v70,2013-04-02 12:10:00,
2013-04-02 06:15:00,37.0,16.6,30.02,East,90,0.0,6.0,43,0.00,,,0.00,Weather View 32 v70,2013-04-02 12:15:00,
2013-04-02 06:20:00,37.0,16.0,30.02,East,90,0.0,6.0,42,0.00,,,0.00,Weather View 32 v70,2013-04-02 12:20:00,
2013-04-02 06:25:00,37.0,16.0,30.02,East,90,5.0,6.0,42,0.00,,,0.00,Weather View 32 v70,2013-04-02 12:25:00,
2013-04-02 06:30:00,37.0,15.5,30.02,East,90,4.0,6.0,41,0.00,,,0.00,Weather View 32 v70,2013-04-02 12:30:00,
2013-04-02 06:35:00,37.0,15.5,30.02,East,90,2.0,5.0,41,0.00,,,0.00,Weather View 32 v70,2013-04-02 12:35:00,
2013-04-02 06:40:00,38.0,16.9,30.02,NNE,22,4.0,5.0,42,0.00,,,0.00,Weather View 32 v70,2013-04-02 12:40:00,
2013-04-02 06:45:00,38.0,16.9,30.02,NNE,22,2.0,5.0,42,0.00,,,0.00,Weather View 32 v70,2013-04-02 12:45:00,
2013-04-02 06:50:00,38.0,18.0,30.02,NNE,22,0.0,5.0,44,0.00,,,0.00,Weather View 32 v70,2013-04-02 12:50:00,
2013-04-02 06:55:00,37.0,16.6,30.02,East,90,5.0,6.0,43,0.00,,,0.00,Weather View 32 v70,2013-04-02 12:55:00,
2013-04-02 07:00:00,37.0,17.1,30.02,East,90,3.0,6.0,44,0.00,,,0.00,Weather View 32 v70,2013-04-02 13:00:00,
2013-04-02 07:05:00,37.0,17.1,30.02,East,90,4.0,6.0,44,0.00,,,0.00,Weather View 32 v70,2013-04-02 13:05:00,
2013-04-02 07:10:00,37.0,17.1,30.02,East,90,4.0,6.0,44,0.00,,,0.00,Weather View 32 v70,2013-04-02 13:10:00,
2013-04-02 07:15:00,37.0,16.6,30.02,East,90,3.0,6.0,43,0.00,,,0.00,Weather View 32 v70,2013-04-02 13:15:00,
2013-04-02 07:20:00,37.0,16.0,30.03,East,90,5.0,6.0,42,0.00,,,0.00,Weather View 32 v70,2013-04-02 13:20:00,
2013-04-02 07:25:00,37.0,16.0,30.03,East,90,3.0,6.0,42,0.00,,,0.00,Weather View 32 v70,2013-04-02 13:25:00,
2013-04-02 07:30:00,37.0,14.9,30.04,ENE,67,4.0,6.0,40,0.00,,,0.00,Weather View 32 v70,2013-04-02 13:30:00,
2013-04-02 07:35:00,38.0,15.2,30.04,NE,45,5.0,6.0,39,0.00,,,0.00,Weather View 32 v70,2013-04-02 13:35:00,
2013-04-02 07:40:00,39.0,15.5,30.03,NE,45,4.0,7.0,38,0.00,,,0.00,Weather View 32 v70,2013-04-02 13:40:00,
2013-04-02 07:45:00,39.0,14.9,30.03,NE,45,3.0,7.0,37,0.00,,,0.00,Weather View 32 v70,2013-04-02 13:45:00,
2013-04-02 07:49:00,40.0,14.5,30.04,ENE,67,5.0,7.0,35,0.00,,,0.00,Weather View 32 v70,2013-04-02 13:49:00,
2013-04-02 07:55:00,41.0,15.4,30.04,East,90,5.0,7.0,35,0.00,,,0.00,Weather View 32 v70,2013-04-02 13:55:00,
2013-04-02 07:59:00,42.0,14.2,30.03,East,90,5.0,10.0,32,0.00,,,0.00,Weather View 32 v70,2013-04-02 13:59:00,
2013-04-02 08:04:00,42.0,13.5,30.03,East,90,6.0,10.0,31,0.00,,,0.00,Weather View 32 v70,2013-04-02 14:04:00,
2013-04-02 08:09:00,42.0,13.5,30.04,East,90,4.0,10.0,31,0.00,,,0.00,Weather View 32 v70,2013-04-02 14:09:00,
2013-04-02 08:14:00,43.0,13.6,30.04,East,90,5.0,10.0,30,0.00,,,0.00,Weather View 32 v70,2013-04-02 14:14:00,
2013-04-02 08:19:00,43.0,13.6,30.04,East,90,6.0,10.0,30,0.00,,,0.00,Weather View 32 v70,2013-04-02 14:19:00,
2013-04-02 08:24:00,44.0,13.7,30.04,East,90,6.0,10.0,29,0.00,,,0.00,Weather View 32 v70,2013-04-02 14:24:00,
2013-04-02 08:30:00,44.0,12.9,30.04,ENE,67,5.0,10.0,28,0.00,,,0.00,Weather View 32 v70,2013-04-02 14:30:00,
2013-04-02 08:35:00,44.0,12.9,30.04,East,90,7.0,10.0,28,0.00,,,0.00,Weather View 32 v70,2013-04-02 14:35:00,
2013-04-02 08:40:00,45.0,13.8,30.04,East,90,5.0,10.0,28,0.00,,,0.00,Weather View 32 v70,2013-04-02 14:40:00,
2013-04-02 08:45:00,45.0,13.0,30.04,East,90,4.0,10.0,27,0.00,,,0.00,Weather View 32 v70,2013-04-02 14:45:00,
2013-04-02 08:50:00,46.0,13.8,30.03,East,90,4.0,10.0,27,0.00,,,0.00,Weather View 32 v70,2013-04-02 14:50:00,
2013-04-02 08:55:00,46.0,13.8,30.03,East,90,6.0,10.0,27,0.00,,,0.00,Weather View 32 v70,2013-04-02 14:55:00,
2013-04-02 09:00:00,47.0,12.9,30.03,East,90,4.0,8.0,25,0.00,,,0.00,Weather View 32 v70,2013-04-02 15:00:00,
2013-04-02 09:05:00,47.0,12.9,30.03,East,90,7.0,8.0,25,0.00,,,0.00,Weather View 32 v70,2013-04-02 15:05:00,
2013-04-02 09:11:00,48.0,12.9,30.03,East,90,4.0,8.0,24,0.00,,,0.00,Weather View 32 v70,2013-04-02 15:11:00,
2013-04-02 09:16:00,49.0,12.8,30.03,East,90,6.0,8.0,23,0.00,,,0.00,Weather View 32 v70,2013-04-02 15:16:00,
2013-04-02 09:21:00,49.0,12.8,30.02,NE,45,2.0,8.0,23,0.00,,,0.00,Weather View 32 v70,2013-04-02 15:21:00,
2013-04-02 09:26:00,50.0,12.6,30.02,East,90,4.0,8.0,22,0.00,,,0.00,Weather View 32 v70,2013-04-02 15:26:00,
2013-04-02 09:31:00,51.0,14.4,30.02,East,90,4.0,8.0,23,0.00,,,0.00,Weather View 32 v70,2013-04-02 15:31:00,
2013-04-02 09:37:00,52.0,13.2,30.02,ENE,67,0.0,8.0,21,0.00,,,0.00,Weather View 32 v70,2013-04-02 15:37:00,
2013-04-02 09:42:00,53.0,15.1,30.01,ENE,67,0.0,8.0,22,0.00,,,0.00,Weather View 32 v70,2013-04-02 15:42:00,
2013-04-02 09:47:00,54.0,14.9,30.01,SW,225,5.0,8.0,21,0.00,,,0.00,Weather View 32 v70,2013-04-02 15:47:00,
2013-04-02 09:53:00,55.0,13.4,30.01,SSE,157,1.0,8.0,19,0.00,,,0.00,Weather View 32 v70,2013-04-02 15:53:00,
2013-04-02 09:58:00,56.0,14.2,30.01,WSW,247,2.0,8.0,19,0.00,,,0.00,Weather View 32 v70,2013-04-02 15:58:00,
2013-04-02 10:03:00,56.0,14.2,30.00,WSW,247,1.0,8.0,19,0.00,,,0.00,Weather View 32 v70,2013-04-02 16:03:00,
2013-04-02 10:08:00,58.0,15.9,30.00,SW,225,1.0,8.0,19,0.00,,,0.00,Weather View 32 v70,2013-04-02 16:08:00,
2013-04-02 10:13:00,59.0,15.5,30.00,SE,135,3.0,7.0,18,0.00,,,0.00,Weather View 32 v70,2013-04-02 16:13:00,
2013-04-02 10:18:00,59.0,16.7,30.00,SW,225,3.0,6.0,19,0.00,,,0.00,Weather View 32 v70,2013-04-02 16:18:00,
2013-04-02 10:23:00,59.0,17.9,30.00,West,270,4.0,6.0,20,0.00,,,0.00,Weather View 32 v70,2013-04-02 16:23:00,
2013-04-02 10:28:00,59.0,19.0,30.00,West,270,7.0,9.0,21,0.00,,,0.00,Weather View 32 v70,2013-04-02 16:28:00,
2013-04-02 10:34:00,59.0,17.9,30.00,SW,225,10.0,11.0,20,0.00,,,0.00,Weather View 32 v70,2013-04-02 16:34:00,
2013-04-02 10:39:00,59.0,19.0,30.00,WNW,292,6.0,13.0,21,0.00,,,0.00,Weather View 32 v70,2013-04-02 16:39:00,
2013-04-02 10:44:00,59.0,20.1,30.00,NW,315,4.0,13.0,22,0.00,,,0.00,Weather View 32 v70,2013-04-02 16:44:00,
2013-04-02 10:49:00,59.0,19.0,30.00,West,270,4.0,13.0,21,0.00,,,0.00,Weather View 32 v70,2013-04-02 16:49:00,
2013-04-02 10:54:00,59.0,19.0,30.00,NW,315,6.0,13.0,21,0.00,,,0.00,Weather View 32 v70,2013-04-02 16:54:00,
2013-04-02 10:59:00,59.0,22.2,29.99,West,270,7.0,13.0,24,0.00,,,0.00,Weather View 32 v70,2013-04-02 16:59:00,
2013-04-02 11:04:00,58.0,18.2,29.99,SW,225,8.0,13.0,21,0.00,,,0.00,Weather View 32 v70,2013-04-02 17:04:00,
2013-04-02 11:10:00,59.0,19.0,29.99,West,270,8.0,13.0,21,0.00,,,0.00,Weather View 32 v70,2013-04-02 17:10:00,
2013-04-02 11:15:00,59.0,20.1,29.99,WNW,292,7.0,13.0,22,0.00,,,0.00,Weather View 32 v70,2013-04-02 17:15:00,
2013-04-02 11:20:00,59.0,17.9,29.99,West,270,6.0,13.0,20,0.00,,,0.00,Weather View 32 v70,2013-04-02 17:20:00,
2013-04-02 11:25:00,59.0,21.2,29.99,West,270,6.0,14.0,23,0.00,,,0.00,Weather View 32 v70,2013-04-02 17:25:00,
2013-04-02 11:30:00,59.0,17.9,29.99,SW,225,10.0,14.0,20,0.00,,,0.00,Weather View 32 v70,2013-04-02 17:30:00,
2013-04-02 11:35:00,59.0,17.9,29.99,NW,315,7.0,15.0,20,0.00,,,0.00,Weather View 32 v70,2013-04-02 17:35:00,
2013-04-02 11:40:00,59.0,19.0,29.98,NW,315,8.0,15.0,21,0.00,,,0.00,Weather View 32 v70,2013-04-02 17:40:00,
2013-04-02 11:45:00,59.0,17.9,29.98,WSW,247,0.0,15.0,20,0.00,,,0.00,Weather View 32 v70,2013-04-02 17:45:00,
2013-04-02 11:51:00,59.0,17.9,29.98,WSW,247,6.0,15.0,20,0.00,,,0.00,Weather View 32 v70,2013-04-02 17:51:00,
2013-04-02 11:56:00,59.0,16.7,29.98,NW,315,3.0,15.0,19,0.00,,,0.00,Weather View 32 v70,2013-04-02 17:56:00,
2013-04-02 12:01:00,59.0,16.7,29.98,West,270,8.0,17.0,19,0.00,,,0.00,Weather View 32 v70,2013-04-02 18:01:00,
2013-04-02 12:06:00,59.0,14.2,29.98,SW,225,5.0,17.0,17,0.00,,,0.00,Weather View 32 v70,2013-04-02 18:06:00,
2013-04-02 12:11:00,59.0,16.7,29.98,West,270,7.0,17.0,19,0.00,,,0.00,Weather View 32 v70,2013-04-02 18:11:00,
2013-04-02 12:16:00,59.0,16.7,29.98,SSW,202,7.0,17.0,19,0.00,,,0.00,Weather View 32 v70,2013-04-02 18:16:00,
2013-04-02 12:21:00,59.0,15.5,29.97,SSW,202,11.0,17.0,18,0.00,,,0.00,Weather View 32 v70,2013-04-02 18:21:00,
2013-04-02 12:26:00,60.0,15.0,29.97,NW,315,2.0,17.0,17,0.00,,,0.00,Weather View 32 v70,2013-04-02 18:26:00,
2013-04-02 12:31:00,60.0,13.6,29.97,NW,315,11.0,17.0,16,0.00,,,0.00,Weather View 32 v70,2013-04-02 18:31:00,
2013-04-02 12:36:00,60.0,16.3,29.97,SW,225,8.0,17.0,18,0.00,,,0.00,Weather View 32 v70,2013-04-02 18:36:00,
2013-04-02 12:41:00,59.0,15.5,29.97,SW,225,6.0,17.0,18,0.00,,,0.00,Weather View 32 v70,2013-04-02 18:41:00,
2013-04-02 12:46:00,59.0,15.5,29.97,WSW,247,9.0,17.0,18,0.00,,,0.00,Weather View 32 v70,2013-04-02 18:46:00,
2013-04-02 12:51:00,59.0,15.5,29.96,SW,225,8.0,17.0,18,0.00,,,0.00,Weather View 32 v70,2013-04-02 18:51:00,
2013-04-02 12:56:00,60.0,19.9,29.96,West,270,8.0,17.0,21,0.00,,,0.00,Weather View 32 v70,2013-04-02 18:56:00,
2013-04-02 13:01:00,60.0,13.6,29.96,West,270,6.0,16.0,16,0.00,,,0.00,Weather View 32 v70,2013-04-02 19:01:00,
2013-04-02 13:06:00,60.0,15.0,29.96,SW,225,8.0,16.0,17,0.00,,,0.00,Weather View 32 v70,2013-04-02 19:06:00,
2013-04-02 13:12:00,60.0,16.3,29.95,SW,225,5.0,16.0,18,0.00,,,0.00,Weather View 32 v70,2013-04-02 19:12:00,
2013-04-02 13:17:00,60.0,15.0,29.95,WSW,247,3.0,16.0,17,0.00,,,0.00,Weather View 32 v70,2013-04-02 19:17:00,
2013-04-02 13:22:00,60.0,15.0,29.95,SW,225,6.0,16.0,17,0.00,,,0.00,Weather View 32 v70,2013-04-02 19:22:00,
2013-04-02 13:27:00,60.0,18.7,29.95,WSW,247,8.0,16.0,20,0.00,,,0.00,Weather View 32 v70,2013-04-02 19:27:00,
2013-04-02 13:32:00,61.0,18.4,29.95,SW,225,10.0,16.0,19,0.00,,,0.00,Weather View 32 v70,2013-04-02 19:32:00,
2013-04-02 13:37:00,61.0,17.1,29.95,NW,315,5.0,16.0,18,0.00,,,0.00,Weather View 32 v70,2013-04-02 19:37:00,
2013-04-02 13:42:00,60.0,16.3,29.94,SW,225,12.0,19.0,18,0.00,,,0.00,Weather View 32 v70,2013-04-02 19:42:00,
2013-04-02 13:47:00,60.0,17.5,29.94,WSW,247,10.0,19.0,19,0.00,,,0.00,Weather View 32 v70,2013-04-02 19:47:00,
2013-04-02 13:52:00,59.0,17.9,29.95,West,270,15.0,19.0,20,0.00,,,0.00,Weather View 32 v70,2013-04-02 19:52:00,
2013-04-02 13:57:00,59.0,17.9,29.95,SSW,202,6.0,19.0,20,0.00,,,0.00,Weather View 32 v70,2013-04-02 19:57:00,
2013-04-02 14:03:00,59.0,19.0,29.96,WSW,247,6.0,19.0,21,0.00,,,0.00,Weather View 32 v70,2013-04-02 20:03:00,
2013-04-02 14:08:00,58.0,20.3,29.96,WNW,292,8.0,19.0,23,0.00,,,0.00,Weather View 32 v70,2013-04-02 20:08:00,
2013-04-02 14:13:00,58.0,19.3,29.96,SSW,202,5.0,19.0,22,0.00,,,0.00,Weather View 32 v70,2013-04-02 20:13:00,
2013-04-02 14:18:00,58.0,19.3,29.96,West,270,9.0,19.0,22,0.00,,,0.00,Weather View 32 v70,2013-04-02 20:18:00,
2013-04-02 14:23:00,58.0,18.2,29.96,WSW,247,13.0,21.0,21,0.00,,,0.00,Weather View 32 v70,2013-04-02 20:23:00,
2013-04-02 14:28:00,58.0,18.2,29.96,NW,315,4.0,21.0,21,0.00,,,0.00,Weather View 32 v70,2013-04-02 20:28:00,
2013-04-02 14:33:00,58.0,18.2,29.95,West,270,10.0,21.0,21,0.00,,,0.00,Weather View 32 v70,2013-04-02 20:33:00,
2013-04-02 14:38:00,58.0,20.3,29.95,WNW,292,8.0,21.0,23,0.00,,,0.00,Weather View 32 v70,2013-04-02 20:38:00,
2013-04-02 14:43:00,58.0,18.2,29.95,WSW,247,6.0,21.0,21,0.00,,,0.00,Weather View 32 v70,2013-04-02 20:43:00,
2013-04-02 14:48:00,58.0,19.3,29.95,West,270,4.0,21.0,22,0.00,,,0.00,Weather View 32 v70,2013-04-02 20:48:00,
2013-04-02 14:53:00,58.0,15.9,29.95,SW,225,14.0,21.0,19,0.00,,,0.00,Weather View 32 v70,2013-04-02 20:53:00,
2013-04-02 14:59:00,58.0,19.3,29.95,West,270,8.0,21.0,22,0.00,,,0.00,Weather View 32 v70,2013-04-02 20:59:00,
2013-04-02 15:04:00,57.0,18.5,29.95,SW,225,7.0,21.0,22,0.00,,,0.00,Weather View 32 v70,2013-04-02 21:04:00,
2013-04-02 15:09:00,57.0,20.5,29.95,SSW,202,10.0,21.0,24,0.00,,,0.00,Weather View 32 v70,2013-04-02 21:09:00,
2013-04-02 15:14:00,56.0,19.6,29.95,SW,225,6.0,21.0,24,0.00,,,0.00,Weather View 32 v70,2013-04-02 21:14:00,
2013-04-02 15:19:00,55.0,21.6,29.95,SW,225,14.0,21.0,27,0.00,,,0.00,Weather View 32 v70,2013-04-02 21:19:00,
2013-04-02 15:24:00,55.0,21.6,29.96,SSW,202,20.0,24.0,27,0.00,,,0.00,Weather View 32 v70,2013-04-02 21:24:00,
2013-04-02 15:29:00,54.0,19.8,29.96,South,180,11.0,24.0,26,0.00,,,0.00,Weather View 32 v70,2013-04-02 21:29:00,
2013-04-02 15:34:00,55.0,20.7,29.96,SSW,202,9.0,24.0,26,0.00,,,0.00,Weather View 32 v70,2013-04-02 21:34:00,
2013-04-02 15:39:00,55.0,20.7,29.96,SW,225,9.0,24.0,26,0.00,,,0.00,Weather View 32 v70,2013-04-02 21:39:00,
2013-04-02 15:44:00,55.0,23.3,29.96,SE,135,7.0,24.0,29,0.00,,,0.00,Weather View 32 v70,2013-04-02 21:44:00,
2013-04-02 15:49:00,55.0,22.4,29.95,South,180,10.0,24.0,28,0.00,,,0.00,Weather View 32 v70,2013-04-02 21:49:00,
2013-04-02 15:54:00,54.0,22.4,29.95,SE,135,15.0,24.0,29,0.00,,,0.00,Weather View 32 v70,2013-04-02 21:54:00,
2013-04-02 15:59:00,55.0,21.6,29.96,SW,225,9.0,24.0,27,0.00,,,0.00,Weather View 32 v70,2013-04-02 21:59:00,
2013-04-02 16:04:00,55.0,20.7,29.96,SW,225,4.0,24.0,26,0.00,,,0.00,Weather View 32 v70,2013-04-02 22:04:00,
2013-04-02 16:09:00,56.0,20.6,29.96,SW,225,0.0,24.0,25,0.00,,,0.00,Weather View 32 v70,2013-04-02 22:09:00,
2013-04-02 16:14:00,56.0,22.4,29.96,West,270,10.0,24.0,27,0.00,,,0.00,Weather View 32 v70,2013-04-02 22:14:00,
2013-04-02 16:19:00,56.0,21.5,29.96,SW,225,7.0,24.0,26,0.00,,,0.00,Weather View 32 v70,2013-04-02 22:19:00,
2013-04-02 16:24:00,55.0,26.4,29.96,South,180,9.0,22.0,33,0.00,,,0.00,Weather View 32 v70,2013-04-02 22:24:00,
2013-04-02 16:30:00,54.0,25.5,29.97,SW,225,11.0,24.0,33,0.00,,,0.00,Weather View 32 v70,2013-04-02 22:30:00,
2013-04-02 16:35:00,52.0,24.4,29.97,SW,225,7.0,24.0,34,0.00,,,0.00,Weather View 32 v70,2013-04-02 22:35:00,
2013-04-02 16:40:00,52.0,23.7,29.96,WNW,292,10.0,24.0,33,0.00,,,0.00,Weather View 32 v70,2013-04-02 22:40:00,
2013-04-02 16:45:00,52.0,24.4,29.96,WSW,247,21.0,24.0,34,0.00,,,0.00,Weather View 32 v70,2013-04-02 22:45:00,
2013-04-02 16:50:00,51.0,24.9,29.98,West,270,12.0,24.0,36,0.00,,,0.00,Weather View 32 v70,2013-04-02 22:50:00,
2013-04-02 16:55:00,51.0,23.6,29.98,WSW,247,11.0,25.0,34,0.00,,,0.00,Weather View 32 v70,2013-04-02 22:55:00,
2013-04-02 17:00:00,51.0,24.9,29.98,WSW,247,7.0,25.0,36,0.00,,,0.00,Weather View 32 v70,2013-04-02 23:00:00,
2013-04-02 17:05:00,50.0,24.0,29.98,SSW,202,18.0,25.0,36,0.00,,,0.00,Weather View 32 v70,2013-04-02 23:05:00,
2013-04-02 17:10:00,50.0,26.6,29.99,SW,225,19.0,27.0,40,0.00,,,0.00,Weather View 32 v70,2013-04-02 23:10:00,
2013-04-02 17:15:00,48.0,29.2,29.99,SSW,202,11.0,30.0,48,0.00,,,0.00,Weather View 32 v70,2013-04-02 23:15:00,
2013-04-02 17:20:00,47.0,28.8,30.00,South,180,5.0,30.0,49,0.00,,,0.00,Weather View 32 v70,2013-04-02 23:20:00,
2013-04-02 17:25:00,47.0,27.8,30.00,SE,135,6.0,30.0,47,0.00,,,0.00,Weather View 32 v70,2013-04-02 23:25:00,
2013-04-02 17:30:00,47.0,27.8,30.01,West,270,4.0,30.0,47,0.00,,,0.00,Weather View 32 v70,2013-04-02 23:30:00,
2013-04-02 17:35:00,47.0,27.8,30.01,NW,315,11.0,30.0,47,0.00,,,0.00,Weather View 32 v70,2013-04-02 23:35:00,
2013-04-02 17:40:00,46.0,32.9,30.02,NW,315,11.0,30.0,60,0.00,,,0.00,Weather View 32 v70,2013-04-02 23:40:00,
2013-04-02 17:45:00,45.0,36.5,30.02,NW,315,10.0,30.0,72,0.00,,,0.00,Weather View 32 v70,2013-04-02 23:45:00,
2013-04-02 17:52:00,43.0,37.6,30.02,North,360,8.0,30.0,81,0.01,,,0.01,Weather View 32 v70,2013-04-02 23:52:00,
2013-04-02 17:57:00,43.0,37.9,30.02,NNE,22,9.0,30.0,82,0.01,,,0.01,Weather View 32 v70,2013-04-02 23:57:00,
2013-04-02 18:03:00,43.0,38.5,30.01,NNE,22,3.0,30.0,84,0.01,,,0.01,Weather View 32 v70,2013-04-03 00:03:00,
2013-04-02 18:08:00,44.0,37.9,30.01,NNE,22,10.0,30.0,79,0.01,,,0.01,Weather View 32 v70,2013-04-03 00:08:00,
2013-04-02 18:13:00,44.0,38.2,30.01,NE,45,8.0,28.0,80,0.01,,,0.01,Weather View 32 v70,2013-04-03 00:13:00,
2013-04-02 18:18:00,44.0,37.2,30.01,NE,45,10.0,27.0,77,0.01,,,0.01,Weather View 32 v70,2013-04-03 00:18:00,
2013-04-02 18:23:00,44.0,36.9,30.01,NE,45,8.0,27.0,76,0.01,,,0.01,Weather View 32 v70,2013-04-03 00:23:00,
2013-04-02 18:28:00,44.0,37.2,30.01,ENE,67,7.0,27.0,77,0.01,,,0.01,Weather View 32 v70,2013-04-03 00:28:00,
2013-04-02 18:34:00,44.0,37.2,30.01,ENE,67,4.0,27.0,77,0.01,,,0.01,Weather View 32 v70,2013-04-03 00:34:00,
2013-04-02 18:39:00,44.0,37.2,30.01,East,90,6.0,27.0,77,0.01,,,0.01,Weather View 32 v70,2013-04-03 00:39:00,
2013-04-02 18:44:00,44.0,37.9,30.01,NNE,22,4.0,15.0,79,0.01,,,0.01,Weather View 32 v70,2013-04-03 00:44:00,
2013-04-02 18:50:00,45.0,36.5,30.01,ENE,67,6.0,14.0,72,0.00,,,0.01,Weather View 32 v70,2013-04-03 00:50:00,
2013-04-02 18:55:00,45.0,36.9,30.01,East,90,4.0,14.0,73,0.00,,,0.01,Weather View 32 v70,2013-04-03 00:55:00,
2013-04-02 19:00:00,45.0,35.8,30.00,East,90,5.0,14.0,70,0.00,,,0.01,Weather View 32 v70,2013-04-03 01:00:00,
2013-04-02 19:05:00,45.0,32.7,30.00,East,90,3.0,14.0,62,0.00,,,0.01,Weather View 32 v70,2013-04-03 01:05:00,
2013-04-02 19:10:00,45.0,32.7,30.00,SE,135,3.0,12.0,62,0.00,,,0.01,Weather View 32 v70,2013-04-03 01:10:00,
2013-04-02 19:15:00,45.0,34.7,30.00,SE,135,3.0,11.0,67,0.00,,,0.01,Weather View 32 v70,2013-04-03 01:15:00,
2013-04-02 19:20:00,45.0,33.5,30.01,SE,135,1.0,10.0,64,0.00,,,0.01,Weather View 32 v70,2013-04-03 01:20:00,
2013-04-02 19:26:00,45.0,33.1,30.01,SE,135,1.0,10.0,63,0.00,,,0.01,Weather View 32 v70,2013-04-03 01:26:00,
2013-04-02 19:31:00,45.0,34.3,30.00,SE,135,0.0,10.0,66,0.00,,,0.01,Weather View 32 v70,2013-04-03 01:31:00,
2013-04-02 19:36:00,44.0,35.5,30.00,SE,135,0.0,9.0,72,0.00,,,0.01,Weather View 32 v70,2013-04-03 01:36:00,
2013-04-02 19:41:00,44.0,35.5,30.01,SE,135,0.0,9.0,72,0.00,,,0.01,Weather View 32 v70,2013-04-03 01:41:00,
2013-04-02 19:46:00,44.0,34.5,30.01,SE,135,0.0,9.0,69,0.00,,,0.01,Weather View 32 v70,2013-04-03 01:46:00,
2013-04-02 19:51:00,44.0,35.9,30.01,SE,135,0.0,8.0,73,0.00,,,0.01,Weather View 32 v70,2013-04-03 01:51:00,
2013-04-02 19:56:00,43.0,33.9,30.01,SE,135,2.0,7.0,70,0.00,,,0.01,Weather View 32 v70,2013-04-03 01:56:00,
2013-04-02 20:01:00,43.0,33.1,30.01,SE,135,1.0,6.0,68,0.00,,,0.01,Weather View 32 v70,2013-04-03 02:01:00,
2013-04-02 20:06:00,43.0,33.5,30.01,SE,135,1.0,4.0,69,0.00,,,0.01,Weather View 32 v70,2013-04-03 02:06:00,
2013-04-02 20:11:00,43.0,33.9,30.02,West,270,3.0,5.0,70,0.00,,,0.01,Weather View 32 v70,2013-04-03 02:11:00,
2013-04-02 20:16:00,42.0,33.6,30.02,West,270,3.0,5.0,72,0.00,,,0.01,Weather View 32 v70,2013-04-03 02:16:00,
2013-04-02 20:21:00,42.0,34.0,30.02,West,270,2.0,5.0,73,0.00,,,0.01,Weather View 32 v70,2013-04-03 02:21:00,
2013-04-02 20:26:00,42.0,34.6,30.02,West,270,3.0,5.0,75,0.00,,,0.01,Weather View 32 v70,2013-04-03 02:26:00,
2013-04-02 20:31:00,42.0,35.0,30.02,West,270,3.0,5.0,76,0.00,,,0.01,Weather View 32 v70,2013-04-03 02:31:00,
2013-04-02 20:37:00,42.0,35.0,30.02,West,270,3.0,5.0,76,0.00,,,0.01,Weather View 32 v70,2013-04-03 02:37:00,
2013-04-02 20:42:00,41.0,34.0,30.02,West,270,3.0,5.0,76,0.00,,,0.01,Weather View 32 v70,2013-04-03 02:42:00,
2013-04-02 20:47:00,41.0,34.3,30.02,West,270,3.0,5.0,77,0.00,,,0.01,Weather View 32 v70,2013-04-03 02:47:00,
2013-04-02 20:52:00,41.0,34.7,30.03,West,270,3.0,5.0,78,0.00,,,0.01,Weather View 32 v70,2013-04-03 02:52:00,
2013-04-02 20:58:00,41.0,34.7,30.03,West,270,4.0,5.0,78,0.00,,,0.01,Weather View 32 v70,2013-04-03 02:58:00,
2013-04-02 21:03:00,41.0,35.3,30.03,West,270,4.0,5.0,80,0.00,,,0.01,Weather View 32 v70,2013-04-03 03:03:00,
2013-04-02 21:10:00,41.0,35.3,30.03,West,270,3.0,5.0,80,0.00,,,0.01,Weather View 32 v70,2013-04-03 03:10:00,
2013-04-02 21:15:00,40.0,34.6,30.03,West,270,4.0,5.0,81,0.00,,,0.01,Weather View 32 v70,2013-04-03 03:15:00,
2013-04-02 21:20:00,41.0,35.6,30.04,West,270,4.0,6.0,81,0.00,,,0.01,Weather View 32 v70,2013-04-03 03:20:00,
2013-04-02 21:25:00,40.0,34.9,30.04,West,270,3.0,6.0,82,0.00,,,0.01,Weather View 32 v70,2013-04-03 03:25:00,
2013-04-02 21:30:00,40.0,34.6,30.04,West,270,5.0,6.0,81,0.00,,,0.01,Weather View 32 v70,2013-04-03 03:30:00,
2013-04-02 21:35:00,40.0,34.6,30.04,West,270,3.0,6.0,81,0.00,,,0.01,Weather View 32 v70,2013-04-03 03:35:00,
2013-04-02 21:40:00,40.0,33.7,30.05,WNW,292,4.0,6.0,78,0.00,,,0.01,Weather View 32 v70,2013-04-03 03:40:00,
2013-04-02 21:45:00,40.0,33.0,30.05,NW,315,4.0,7.0,76,0.00,,,0.01,Weather View 32 v70,2013-04-03 03:45:00,
2013-04-02 21:50:00,40.0,32.7,30.05,NW,315,4.0,7.0,75,0.00,,,0.01,Weather View 32 v70,2013-04-03 03:50:00,
2013-04-02 21:55:00,40.0,33.0,30.05,NW,315,3.0,7.0,76,0.00,,,0.01,Weather View 32 v70,2013-04-03 03:55:00,
2013-04-02 22:00:00,40.0,32.7,30.05,NW,315,4.0,7.0,75,0.00,,,0.01,Weather View 32 v70,2013-04-03 04:00:00,
2013-04-02 22:05:00,40.0,32.7,30.05,NW,315,4.0,7.0,75,0.00,,,0.01,Weather View 32 v70,2013-04-03 04:05:00,
2013-04-02 22:10:00,40.0,32.7,30.06,NW,315,4.0,7.0,75,0.00,,,0.01,Weather View 32 v70,2013-04-03 04:10:00,
2013-04-02 22:15:00,40.0,32.7,30.06,NW,315,4.0,7.0,75,0.00,,,0.01,Weather View 32 v70,2013-04-03 04:15:00,
2013-04-02 22:20:00,40.0,33.0,30.06,NW,315,4.0,7.0,76,0.00,,,0.01,Weather View 32 v70,2013-04-03 04:20:00,
2013-04-02 22:25:00,40.0,33.0,30.06,NW,315,2.0,7.0,76,0.00,,,0.01,Weather View 32 v70,2013-04-03 04:25:00,
2013-04-02 22:30:00,40.0,33.4,30.06,NW,315,2.0,7.0,77,0.00,,,0.01,Weather View 32 v70,2013-04-03 04:30:00,
2013-04-02 22:35:00,39.0,32.4,30.06,NW,315,3.0,7.0,77,0.00,,,0.01,Weather View 32 v70,2013-04-03 04:35:00,
2013-04-02 22:40:00,39.0,32.7,30.06,NW,315,2.0,7.0,78,0.00,,,0.01,Weather View 32 v70,2013-04-03 04:40:00,
2013-04-02 22:45:00,39.0,32.7,30.06,NW,315,2.0,5.0,78,0.00,,,0.01,Weather View 32 v70,2013-04-03 04:45:00,
2013-04-02 22:50:00,39.0,32.7,30.06,NW,315,3.0,5.0,78,0.00,,,0.01,Weather View 32 v70,2013-04-03 04:50:00,
2013-04-02 22:55:00,39.0,32.4,30.06,NW,315,0.0,5.0,77,0.00,,,0.01,Weather View 32 v70,2013-04-03 04:55:00,
2013-04-02 23:00:00,38.0,31.7,30.06,NW,315,0.0,5.0,78,0.00,,,0.01,Weather View 32 v70,2013-04-03 05:00:00,
2013-04-02 23:05:00,38.0,32.4,30.06,ENE,67,3.0,5.0,80,0.00,,,0.01,Weather View 32 v70,2013-04-03 05:05:00,
2013-04-02 23:10:00,38.0,32.4,30.07,ENE,67,0.0,5.0,80,0.00,,,0.01,Weather View 32 v70,2013-04-03 05:10:00,
2013-04-02 23:15:00,38.0,33.3,30.07,ENE,67,2.0,5.0,83,0.00,,,0.01,Weather View 32 v70,2013-04-03 05:15:00,
2013-04-02 23:20:00,38.0,33.3,30.06,ENE,67,0.0,5.0,83,0.00,,,0.01,Weather View 32 v70,2013-04-03 05:20:00,
2013-04-02 23:25:00,38.0,33.6,30.06,ENE,67,0.0,5.0,84,0.00,,,0.01,Weather View 32 v70,2013-04-03 05:25:00,
2013-04-02 23:30:00,38.0,33.6,30.07,ENE,67,0.0,5.0,84,0.00,,,0.01,Weather View 32 v70,2013-04-03 05:30:00,
2013-04-02 23:35:00,37.0,33.2,30.07,ENE,67,4.0,5.0,86,0.00,,,0.01,Weather View 32 v70,2013-04-03 05:35:00,
2013-04-02 23:40:00,37.0,32.9,30.07,ENE,67,3.0,5.0,85,0.00,,,0.01,Weather View 32 v70,2013-04-03 05:40:00,
2013-04-02 23:45:00,37.0,33.2,30.07,ENE,67,3.0,5.0,86,0.00,,,0.01,Weather View 32 v70,2013-04-03 05:45:00,
2013-04-02 23:50:00,37.0,33.5,30.07,ENE,67,2.0,5.0,87,0.00,,,0.01,Weather View 32 v70,2013-04-03 05:50:00,
2013-04-02 23:55:00,37.0,33.5,30.07,ENE,67,0.0,5.0,87,0.00,,,0.01,Weather View 32 v70,2013-04-03 05:55:00,